Aeroporto :
LOGIN :

Iscrizione | Disclaimer

   EN    FR    IT 

 










Sommario :    VFR   VFR Marginale   IFR   IFR Intensivo   IFR Molto Intensivo
Visibilità : 
Base nubi : 
>= 8 km
>= 3000ft
5 / 8 km
1000 / 3000 ft
1500m / 5 km
500 / 1000 ft
800 / 1500m
200 / 500 ft
< 800m
< 200 ft
Simboli :   Temporali  Nebbia  Neve Forte  Precipitazioni Forti  Vento > 20 kt
SIGMETs :   Varie  Temporali  Ghiacco  Turbolenza  Onda orograficha  Ceneri Vulcaniche






- Altitudine del aeroporto : 137 ft
- Codice IATA : THN


ESGT - Trollhattan-Vanersborg

ULTIMO METAR :
  • 270650Z 17010KT 9999 OVC008 04/03 Q1004

METARs OBSOLETI :
  • 270620Z 17009KT 9999 OVC007 04/03 Q1004
  • 270550Z 16010KT 9999 OVC008 04/03 Q1004
  • 270520Z 18011KT 9999 OVC007 04/03 Q1005
  • 270450Z 18012KT 7000 OVC006 04/03 Q1005
  • 270420Z AUTO 19011KT 5000 OVC005/// 04/03 Q1005 REDZ
  • 270350Z AUTO 20011KT 3200 -DZ OVC004/// 04/03 Q1006 REDZ

TAF TAF ESGT
Valido dal 27 a 06 ore il 27 a 15 ore UTC


270530Z 2706/2715 18010KT 8000 OVC006
PROB40 2706/2712 2500 -DZ BR OVC004
PROB40 2712/2715 2500 RA BR OVC004



MetMap, La meteo Aeronautica in un colpo d'occhio ! - Copyright ORBIFLY Dicembre 2007 - Disclaimer

ORBIFLY MET'MAP TEAM :

Programmazione e sviluppo : Alexandra Zaïnal
Concezione : Baudouin d'Aumeries
Aiuto per la programmazione : Marc-Olivier Méhu
Supporto tecnico e logistico : Manuel Goepfert
Aiuto per la traduzione : Arnaldo La Scala

Contatto : metmap@orbifly.com




FONTI E CREDITI :

   NOAA